sensor_id;sensor_type;location;lat;lon;timestamp;temperature;humidity
8002;DHT22;4046;48.774;8.732;2022-07-12T00:00:05;15.80;99.90
8002;DHT22;4046;48.774;8.732;2022-07-12T00:02:32;15.80;99.90
8002;DHT22;4046;48.774;8.732;2022-07-12T00:04:58;15.70;99.90
8002;DHT22;4046;48.774;8.732;2022-07-12T00:07:24;15.50;99.90
8002;DHT22;4046;48.774;8.732;2022-07-12T00:09:50;15.40;99.90
8002;DHT22;4046;48.774;8.732;2022-07-12T00:12:16;15.40;99.90
8002;DHT22;4046;48.774;8.732;2022-07-12T00:14:42;15.50;99.90
8002;DHT22;4046;48.774;8.732;2022-07-12T00:17:08;15.50;99.90
8002;DHT22;4046;48.774;8.732;2022-07-12T00:19:34;15.50;99.90
8002;DHT22;4046;48.774;8.732;2022-07-12T00:21:59;15.50;99.90
8002;DHT22;4046;48.774;8.732;2022-07-12T00:24:25;15.80;99.90
8002;DHT22;4046;48.774;8.732;2022-07-12T00:26:51;15.80;99.90
8002;DHT22;4046;48.774;8.732;2022-07-12T00:29:18;15.70;99.90
8002;DHT22;4046;48.774;8.732;2022-07-12T00:31:43;15.50;99.90
8002;DHT22;4046;48.774;8.732;2022-07-12T00:34:09;15.30;99.90
8002;DHT22;4046;48.774;8.732;2022-07-12T00:36:37;15.40;99.90
8002;DHT22;4046;48.774;8.732;2022-07-12T00:39:03;15.40;99.90
8002;DHT22;4046;48.774;8.732;2022-07-12T00:41:29;15.20;99.90
8002;DHT22;4046;48.774;8.732;2022-07-12T00:43:56;15.30;99.90
8002;DHT22;4046;48.774;8.732;2022-07-12T00:46:23;15.30;99.90
8002;DHT22;4046;48.774;8.732;2022-07-12T00:48:50;15.40;99.90
8002;DHT22;4046;48.774;8.732;2022-07-12T00:51:17;15.40;99.90
8002;DHT22;4046;48.774;8.732;2022-07-12T00:53:43;15.60;99.90
8002;DHT22;4046;48.774;8.732;2022-07-12T00:56:09;15.70;99.90
8002;DHT22;4046;48.774;8.732;2022-07-12T00:58:35;15.70;99.90
8002;DHT22;4046;48.774;8.732;2022-07-12T01:01:01;15.50;99.90
8002;DHT22;4046;48.774;8.732;2022-07-12T01:03:27;15.40;99.90
8002;DHT22;4046;48.774;8.732;2022-07-12T01:05:56;15.50;99.90
8002;DHT22;4046;48.774;8.732;2022-07-12T01:08:22;15.50;99.90
8002;DHT22;4046;48.774;8.732;2022-07-12T01:10:49;15.50;99.90
8002;DHT22;4046;48.774;8.732;2022-07-12T01:13:15;15.50;99.90
8002;DHT22;4046;48.774;8.732;2022-07-12T01:15:42;15.60;99.90
8002;DHT22;4046;48.774;8.732;2022-07-12T01:18:09;15.50;99.90
8002;DHT22;4046;48.774;8.732;2022-07-12T01:20:35;15.40;99.90
8002;DHT22;4046;48.774;8.732;2022-07-12T01:23:02;15.40;99.90
8002;DHT22;4046;48.774;8.732;2022-07-12T01:25:28;15.40;99.90
8002;DHT22;4046;48.774;8.732;2022-07-12T01:27:54;15.40;99.90
8002;DHT22;4046;48.774;8.732;2022-07-12T01:30:20;15.20;99.90
8002;DHT22;4046;48.774;8.732;2022-07-12T01:32:46;15.10;99.90
8002;DHT22;4046;48.774;8.732;2022-07-12T01:35:12;14.90;99.90
8002;DHT22;4046;48.774;8.732;2022-07-12T01:37:41;14.90;99.90
8002;DHT22;4046;48.774;8.732;2022-07-12T01:40:12;14.90;99.90
8002;DHT22;4046;48.774;8.732;2022-07-12T01:42:39;14.80;99.90
8002;DHT22;4046;48.774;8.732;2022-07-12T01:45:06;14.80;99.90
8002;DHT22;4046;48.774;8.732;2022-07-12T01:47:33;14.80;99.90
8002;DHT22;4046;48.774;8.732;2022-07-12T01:49:59;14.80;99.90
8002;DHT22;4046;48.774;8.732;2022-07-12T01:52:26;14.90;99.90
8002;DHT22;4046;48.774;8.732;2022-07-12T01:54:53;15.00;99.90
8002;DHT22;4046;48.774;8.732;2022-07-12T01:57:19;14.80;99.90
8002;DHT22;4046;48.774;8.732;2022-07-12T01:59:45;14.70;99.90
8002;DHT22;4046;48.774;8.732;2022-07-12T02:02:11;14.40;99.90
8002;DHT22;4046;48.774;8.732;2022-07-12T02:04:40;14.20;99.90
8002;DHT22;4046;48.774;8.732;2022-07-12T02:07:06;14.20;99.90
8002;DHT22;4046;48.774;8.732;2022-07-12T02:09:33;14.20;99.90
8002;DHT22;4046;48.774;8.732;2022-07-12T02:11:59;13.90;99.90
8002;DHT22;4046;48.774;8.732;2022-07-12T02:14:25;13.70;99.90
8002;DHT22;4046;48.774;8.732;2022-07-12T02:16:52;13.60;99.90
8002;DHT22;4046;48.774;8.732;2022-07-12T02:19:18;13.60;99.90
8002;DHT22;4046;48.774;8.732;2022-07-12T02:21:44;13.80;99.90
8002;DHT22;4046;48.774;8.732;2022-07-12T02:24:10;14.00;99.90
8002;DHT22;4046;48.774;8.732;2022-07-12T02:26:36;14.00;99.90
8002;DHT22;4046;48.774;8.732;2022-07-12T02:29:04;14.00;99.90
8002;DHT22;4046;48.774;8.732;2022-07-12T02:31:30;14.20;99.90
8002;DHT22;4046;48.774;8.732;2022-07-12T02:33:56;14.30;99.90
8002;DHT22;4046;48.774;8.732;2022-07-12T02:36:22;14.40;99.90
8002;DHT22;4046;48.774;8.732;2022-07-12T02:38:48;14.50;99.90
8002;DHT22;4046;48.774;8.732;2022-07-12T02:41:14;14.00;99.90
8002;DHT22;4046;48.774;8.732;2022-07-12T02:43:39;13.60;99.90
8002;DHT22;4046;48.774;8.732;2022-07-12T02:46:10;13.50;99.90
8002;DHT22;4046;48.774;8.732;2022-07-12T02:48:36;13.50;99.90
8002;DHT22;4046;48.774;8.732;2022-07-12T02:51:04;13.40;99.90
8002;DHT22;4046;48.774;8.732;2022-07-12T02:53:30;13.30;99.90
8002;DHT22;4046;48.774;8.732;2022-07-12T02:55:57;13.20;99.90
8002;DHT22;4046;48.774;8.732;2022-07-12T02:58:23;13.30;99.90
8002;DHT22;4046;48.774;8.732;2022-07-12T03:00:49;13.30;99.90
8002;DHT22;4046;48.774;8.732;2022-07-12T03:03:17;13.20;99.90
8002;DHT22;4046;48.774;8.732;2022-07-12T03:05:43;13.20;99.90
8002;DHT22;4046;48.774;8.732;2022-07-12T03:08:10;13.30;99.90
8002;DHT22;4046;48.774;8.732;2022-07-12T03:10:36;13.50;99.90
8002;DHT22;4046;48.774;8.732;2022-07-12T03:13:03;13.30;99.90
8002;DHT22;4046;48.774;8.732;2022-07-12T03:15:29;13.20;99.90
8002;DHT22;4046;48.774;8.732;2022-07-12T03:17:57;13.10;99.90
8002;DHT22;4046;48.774;8.732;2022-07-12T03:20:23;13.10;99.90
8002;DHT22;4046;48.774;8.732;2022-07-12T03:22:49;13.20;99.90
8002;DHT22;4046;48.774;8.732;2022-07-12T03:25:17;13.40;99.90
8002;DHT22;4046;48.774;8.732;2022-07-12T03:27:44;13.60;99.90
8002;DHT22;4046;48.774;8.732;2022-07-12T03:30:10;13.40;99.90
8002;DHT22;4046;48.774;8.732;2022-07-12T03:32:36;13.10;99.90
8002;DHT22;4046;48.774;8.732;2022-07-12T03:35:02;13.00;99.90
8002;DHT22;4046;48.774;8.732;2022-07-12T03:37:40;12.90;99.90
8002;DHT22;4046;48.774;8.732;2022-07-12T03:40:06;12.80;99.90
8002;DHT22;4046;48.774;8.732;2022-07-12T03:42:35;12.90;99.90
8002;DHT22;4046;48.774;8.732;2022-07-12T03:45:01;12.90;99.90
8002;DHT22;4046;48.774;8.732;2022-07-12T03:47:27;13.10;99.90
8002;DHT22;4046;48.774;8.732;2022-07-12T03:49:52;13.30;99.90
8002;DHT22;4046;48.774;8.732;2022-07-12T03:52:18;13.20;99.90
8002;DHT22;4046;48.774;8.732;2022-07-12T03:54:44;13.20;99.90
8002;DHT22;4046;48.774;8.732;2022-07-12T03:57:10;13.20;99.90
8002;DHT22;4046;48.774;8.732;2022-07-12T03:59:42;13.10;99.90
8002;DHT22;4046;48.774;8.732;2022-07-12T04:02:08;13.10;99.90
8002;DHT22;4046;48.774;8.732;2022-07-12T04:04:35;13.00;99.90
8002;DHT22;4046;48.774;8.732;2022-07-12T04:07:01;13.10;99.90
8002;DHT22;4046;48.774;8.732;2022-07-12T04:09:26;13.10;99.90
8002;DHT22;4046;48.774;8.732;2022-07-12T04:11:52;13.20;99.90
8002;DHT22;4046;48.774;8.732;2022-07-12T04:14:18;13.00;99.90
8002;DHT22;4046;48.774;8.732;2022-07-12T04:16:44;13.00;99.90
8002;DHT22;4046;48.774;8.732;2022-07-12T04:19:10;12.90;99.90
8002;DHT22;4046;48.774;8.732;2022-07-12T04:21:37;13.00;99.90
8002;DHT22;4046;48.774;8.732;2022-07-12T04:24:03;13.00;99.90
8002;DHT22;4046;48.774;8.732;2022-07-12T04:26:30;13.10;99.90
8002;DHT22;4046;48.774;8.732;2022-07-12T04:28:56;13.30;99.90
8002;DHT22;4046;48.774;8.732;2022-07-12T04:31:25;13.30;99.90
8002;DHT22;4046;48.774;8.732;2022-07-12T04:33:51;13.30;99.90
8002;DHT22;4046;48.774;8.732;2022-07-12T04:36:17;13.40;99.90
8002;DHT22;4046;48.774;8.732;2022-07-12T04:38:43;13.50;99.90
8002;DHT22;4046;48.774;8.732;2022-07-12T04:41:09;13.50;99.90
8002;DHT22;4046;48.774;8.732;2022-07-12T04:43:35;13.30;99.90
8002;DHT22;4046;48.774;8.732;2022-07-12T04:46:10;13.50;99.90
8002;DHT22;4046;48.774;8.732;2022-07-12T04:48:37;13.70;99.90
8002;DHT22;4046;48.774;8.732;2022-07-12T04:51:03;13.60;99.90
8002;DHT22;4046;48.774;8.732;2022-07-12T04:53:29;13.50;99.90
8002;DHT22;4046;48.774;8.732;2022-07-12T04:55:55;13.50;99.90
8002;DHT22;4046;48.774;8.732;2022-07-12T04:58:22;13.40;99.90
8002;DHT22;4046;48.774;8.732;2022-07-12T05:00:49;13.30;99.90
8002;DHT22;4046;48.774;8.732;2022-07-12T05:03:15;13.20;99.90
8002;DHT22;4046;48.774;8.732;2022-07-12T05:05:41;13.30;99.90
8002;DHT22;4046;48.774;8.732;2022-07-12T05:08:06;13.50;99.90
8002;DHT22;4046;48.774;8.732;2022-07-12T05:10:32;13.70;99.90
8002;DHT22;4046;48.774;8.732;2022-07-12T05:12:58;13.80;99.90
8002;DHT22;4046;48.774;8.732;2022-07-12T05:15:26;13.80;99.90
8002;DHT22;4046;48.774;8.732;2022-07-12T05:17:51;13.70;99.90
8002;DHT22;4046;48.774;8.732;2022-07-12T05:20:18;13.70;99.90
8002;DHT22;4046;48.774;8.732;2022-07-12T05:22:50;13.80;99.90
8002;DHT22;4046;48.774;8.732;2022-07-12T05:25:16;13.90;99.90
8002;DHT22;4046;48.774;8.732;2022-07-12T05:27:42;14.00;99.90
8002;DHT22;4046;48.774;8.732;2022-07-12T05:30:09;14.00;99.90
8002;DHT22;4046;48.774;8.732;2022-07-12T05:32:35;14.00;99.90
8002;DHT22;4046;48.774;8.732;2022-07-12T05:35:01;14.00;99.90
8002;DHT22;4046;48.774;8.732;2022-07-12T05:37:26;14.10;99.90
8002;DHT22;4046;48.774;8.732;2022-07-12T05:39:52;14.30;99.90
8002;DHT22;4046;48.774;8.732;2022-07-12T05:42:18;14.30;99.90
8002;DHT22;4046;48.774;8.732;2022-07-12T05:44:44;14.50;99.90
8002;DHT22;4046;48.774;8.732;2022-07-12T05:47:10;14.50;99.90
8002;DHT22;4046;48.774;8.732;2022-07-12T05:49:36;14.60;99.90
8002;DHT22;4046;48.774;8.732;2022-07-12T05:52:02;14.80;99.90
8002;DHT22;4046;48.774;8.732;2022-07-12T05:54:46;14.90;99.90
8002;DHT22;4046;48.774;8.732;2022-07-12T05:57:13;14.70;99.90
8002;DHT22;4046;48.774;8.732;2022-07-12T05:59:39;14.80;99.90
8002;DHT22;4046;48.774;8.732;2022-07-12T06:02:05;14.90;99.90
8002;DHT22;4046;48.774;8.732;2022-07-12T06:04:31;15.10;99.90
8002;DHT22;4046;48.774;8.732;2022-07-12T06:06:59;15.30;99.90
8002;DHT22;4046;48.774;8.732;2022-07-12T06:09:25;15.70;99.90
8002;DHT22;4046;48.774;8.732;2022-07-12T06:11:51;15.70;99.90
8002;DHT22;4046;48.774;8.732;2022-07-12T06:14:17;15.90;99.90
8002;DHT22;4046;48.774;8.732;2022-07-12T06:16:43;16.10;99.90
8002;DHT22;4046;48.774;8.732;2022-07-12T06:19:09;16.00;99.90
8002;DHT22;4046;48.774;8.732;2022-07-12T06:21:35;16.00;99.90
8002;DHT22;4046;48.774;8.732;2022-07-12T06:24:01;16.20;99.90
8002;DHT22;4046;48.774;8.732;2022-07-12T06:26:26;16.40;99.90
8002;DHT22;4046;48.774;8.732;2022-07-12T06:28:53;16.50;99.90
8002;DHT22;4046;48.774;8.732;2022-07-12T06:31:19;16.60;99.90
8002;DHT22;4046;48.774;8.732;2022-07-12T06:33:45;16.50;99.90
8002;DHT22;4046;48.774;8.732;2022-07-12T06:36:11;16.70;99.90
8002;DHT22;4046;48.774;8.732;2022-07-12T06:38:36;16.80;99.90
8002;DHT22;4046;48.774;8.732;2022-07-12T06:41:02;16.90;99.90
8002;DHT22;4046;48.774;8.732;2022-07-12T06:43:28;17.10;99.90
8002;DHT22;4046;48.774;8.732;2022-07-12T06:45:54;17.30;99.90
8002;DHT22;4046;48.774;8.732;2022-07-12T06:48:20;17.50;99.90
8002;DHT22;4046;48.774;8.732;2022-07-12T06:50:46;17.70;99.90
8002;DHT22;4046;48.774;8.732;2022-07-12T06:53:12;17.90;99.90
8002;DHT22;4046;48.774;8.732;2022-07-12T06:55:38;18.10;99.90
8002;DHT22;4046;48.774;8.732;2022-07-12T06:58:04;18.20;99.90
8002;DHT22;4046;48.774;8.732;2022-07-12T07:00:31;18.30;99.90
8002;DHT22;4046;48.774;8.732;2022-07-12T07:02:57;18.50;99.90
8002;DHT22;4046;48.774;8.732;2022-07-12T07:05:23;18.70;99.90
8002;DHT22;4046;48.774;8.732;2022-07-12T07:07:49;18.70;99.90
8002;DHT22;4046;48.774;8.732;2022-07-12T07:10:14;18.90;99.90
8002;DHT22;4046;48.774;8.732;2022-07-12T07:12:40;19.00;99.90
8002;DHT22;4046;48.774;8.732;2022-07-12T07:15:07;19.10;99.90
8002;DHT22;4046;48.774;8.732;2022-07-12T07:17:33;19.30;99.90
8002;DHT22;4046;48.774;8.732;2022-07-12T07:20:00;19.50;99.90
8002;DHT22;4046;48.774;8.732;2022-07-12T07:22:26;19.60;99.90
8002;DHT22;4046;48.774;8.732;2022-07-12T07:24:53;19.80;99.90
8002;DHT22;4046;48.774;8.732;2022-07-12T07:27:19;20.00;99.90
8002;DHT22;4046;48.774;8.732;2022-07-12T07:29:44;20.10;99.90
8002;DHT22;4046;48.774;8.732;2022-07-12T07:32:29;20.10;99.90
8002;DHT22;4046;48.774;8.732;2022-07-12T07:34:54;20.40;99.90
8002;DHT22;4046;48.774;8.732;2022-07-12T07:37:20;20.50;99.90
8002;DHT22;4046;48.774;8.732;2022-07-12T07:39:46;20.70;99.90
8002;DHT22;4046;48.774;8.732;2022-07-12T07:42:12;20.60;99.90
8002;DHT22;4046;48.774;8.732;2022-07-12T07:44:38;20.70;99.90
8002;DHT22;4046;48.774;8.732;2022-07-12T07:47:04;21.00;99.90
8002;DHT22;4046;48.774;8.732;2022-07-12T07:49:29;20.90;99.90
8002;DHT22;4046;48.774;8.732;2022-07-12T07:51:55;21.10;99.90
8002;DHT22;4046;48.774;8.732;2022-07-12T07:54:22;21.30;99.90
8002;DHT22;4046;48.774;8.732;2022-07-12T07:56:48;21.40;99.90
8002;DHT22;4046;48.774;8.732;2022-07-12T07:59:13;21.70;99.90
8002;DHT22;4046;48.774;8.732;2022-07-12T08:01:39;21.80;99.90
8002;DHT22;4046;48.774;8.732;2022-07-12T08:04:12;21.70;99.90
8002;DHT22;4046;48.774;8.732;2022-07-12T08:06:38;21.70;99.90
8002;DHT22;4046;48.774;8.732;2022-07-12T08:09:04;22.00;99.90
8002;DHT22;4046;48.774;8.732;2022-07-12T08:11:31;22.00;99.90
8002;DHT22;4046;48.774;8.732;2022-07-12T08:13:56;21.90;99.90
8002;DHT22;4046;48.774;8.732;2022-07-12T08:16:22;22.00;99.90
8002;DHT22;4046;48.774;8.732;2022-07-12T08:18:48;22.20;99.90
8002;DHT22;4046;48.774;8.732;2022-07-12T08:21:14;22.30;99.90
8002;DHT22;4046;48.774;8.732;2022-07-12T08:23:40;22.40;99.90
8002;DHT22;4046;48.774;8.732;2022-07-12T08:26:08;22.20;99.90
8002;DHT22;4046;48.774;8.732;2022-07-12T08:28:34;22.20;99.90
8002;DHT22;4046;48.774;8.732;2022-07-12T08:30:59;21.80;99.90
8002;DHT22;4046;48.774;8.732;2022-07-12T08:33:25;22.00;99.90
8002;DHT22;4046;48.774;8.732;2022-07-12T08:35:51;22.20;99.90
8002;DHT22;4046;48.774;8.732;2022-07-12T08:38:17;21.80;99.90
8002;DHT22;4046;48.774;8.732;2022-07-12T08:40:43;21.90;99.90
8002;DHT22;4046;48.774;8.732;2022-07-12T08:43:09;22.30;99.90
8002;DHT22;4046;48.774;8.732;2022-07-12T08:45:35;22.70;99.90
8002;DHT22;4046;48.774;8.732;2022-07-12T08:48:01;22.90;99.90
8002;DHT22;4046;48.774;8.732;2022-07-12T08:50:27;23.20;99.90
8002;DHT22;4046;48.774;8.732;2022-07-12T08:52:55;23.20;99.90
8002;DHT22;4046;48.774;8.732;2022-07-12T08:57:58;23.20;99.90
8002;DHT22;4046;48.774;8.732;2022-07-12T09:00:26;23.30;99.90
8002;DHT22;4046;48.774;8.732;2022-07-12T09:02:53;23.70;99.90
8002;DHT22;4046;48.774;8.732;2022-07-12T09:05:24;23.70;99.90
8002;DHT22;4046;48.774;8.732;2022-07-12T09:07:51;23.80;99.90
8002;DHT22;4046;48.774;8.732;2022-07-12T09:10:17;24.20;99.90
8002;DHT22;4046;48.774;8.732;2022-07-12T09:12:44;24.60;99.90
8002;DHT22;4046;48.774;8.732;2022-07-12T09:17:40;25.30;99.90
8002;DHT22;4046;48.774;8.732;2022-07-12T09:20:09;25.70;99.90
8002;DHT22;4046;48.774;8.732;2022-07-12T09:22:36;26.10;99.90
8002;DHT22;4046;48.774;8.732;2022-07-12T09:25:15;26.60;99.90
8002;DHT22;4046;48.774;8.732;2022-07-12T09:27:47;27.00;99.90
8002;DHT22;4046;48.774;8.732;2022-07-12T09:30:15;27.60;99.90
8002;DHT22;4046;48.774;8.732;2022-07-12T09:32:59;27.90;99.90
8002;DHT22;4046;48.774;8.732;2022-07-12T09:35:58;28.30;99.90
8002;DHT22;4046;48.774;8.732;2022-07-12T09:38:39;28.80;99.90
8002;DHT22;4046;48.774;8.732;2022-07-12T09:41:06;28.80;99.90
8002;DHT22;4046;48.774;8.732;2022-07-12T09:43:32;28.90;99.90
8002;DHT22;4046;48.774;8.732;2022-07-12T09:45:59;29.30;99.90
8002;DHT22;4046;48.774;8.732;2022-07-12T09:48:27;29.90;99.90
8002;DHT22;4046;48.774;8.732;2022-07-12T09:50:57;30.40;99.90
8002;DHT22;4046;48.774;8.732;2022-07-12T09:53:38;30.60;99.90
8002;DHT22;4046;48.774;8.732;2022-07-12T09:56:05;30.90;99.90
8002;DHT22;4046;48.774;8.732;2022-07-12T09:59:02;30.90;99.90
8002;DHT22;4046;48.774;8.732;2022-07-12T10:01:30;31.10;99.90
8002;DHT22;4046;48.774;8.732;2022-07-12T10:03:58;31.10;99.90
8002;DHT22;4046;48.774;8.732;2022-07-12T10:06:26;31.50;99.90
8002;DHT22;4046;48.774;8.732;2022-07-12T10:08:52;31.80;99.90
8002;DHT22;4046;48.774;8.732;2022-07-12T10:11:19;32.10;99.90
8002;DHT22;4046;48.774;8.732;2022-07-12T10:13:47;32.20;99.90
8002;DHT22;4046;48.774;8.732;2022-07-12T10:16:24;32.30;99.90
8002;DHT22;4046;48.774;8.732;2022-07-12T10:19:27;32.40;99.90
8002;DHT22;4046;48.774;8.732;2022-07-12T10:21:55;32.00;99.90
8002;DHT22;4046;48.774;8.732;2022-07-12T10:27:00;31.50;99.90
8002;DHT22;4046;48.774;8.732;2022-07-12T10:29:47;31.20;99.90
8002;DHT22;4046;48.774;8.732;2022-07-12T10:32:27;31.50;99.90
8002;DHT22;4046;48.774;8.732;2022-07-12T10:35:07;31.60;99.90
8002;DHT22;4046;48.774;8.732;2022-07-12T10:37:36;31.50;99.90
8002;DHT22;4046;48.774;8.732;2022-07-12T10:40:19;31.70;99.90
8002;DHT22;4046;48.774;8.732;2022-07-12T10:45:40;32.50;99.90
8002;DHT22;4046;48.774;8.732;2022-07-12T10:48:08;32.30;99.90
8002;DHT22;4046;48.774;8.732;2022-07-12T10:53:24;32.80;99.90
8002;DHT22;4046;48.774;8.732;2022-07-12T10:56:16;33.00;99.90
8002;DHT22;4046;48.774;8.732;2022-07-12T10:58:45;33.00;99.90
8002;DHT22;4046;48.774;8.732;2022-07-12T11:01:14;33.00;99.90
8002;DHT22;4046;48.774;8.732;2022-07-12T11:03:44;33.10;99.90
8002;DHT22;4046;48.774;8.732;2022-07-12T11:06:16;33.10;99.90
8002;DHT22;4046;48.774;8.732;2022-07-12T11:09:00;32.80;99.90
8002;DHT22;4046;48.774;8.732;2022-07-12T11:11:39;32.90;99.90
8002;DHT22;4046;48.774;8.732;2022-07-12T11:14:05;32.80;99.90
8002;DHT22;4046;48.774;8.732;2022-07-12T11:16:31;32.40;99.90
8002;DHT22;4046;48.774;8.732;2022-07-12T11:18:57;32.90;99.90
8002;DHT22;4046;48.774;8.732;2022-07-12T11:21:25;32.50;99.90
8002;DHT22;4046;48.774;8.732;2022-07-12T11:23:53;32.40;99.90
8002;DHT22;4046;48.774;8.732;2022-07-12T11:26:19;32.60;99.90
8002;DHT22;4046;48.774;8.732;2022-07-12T11:28:46;31.70;99.90
8002;DHT22;4046;48.774;8.732;2022-07-12T11:31:17;31.70;99.90
8002;DHT22;4046;48.774;8.732;2022-07-12T11:33:48;32.10;99.90
8002;DHT22;4046;48.774;8.732;2022-07-12T11:36:14;32.80;99.90
8002;DHT22;4046;48.774;8.732;2022-07-12T11:38:45;31.30;99.90
8002;DHT22;4046;48.774;8.732;2022-07-12T11:41:12;30.00;99.90
8002;DHT22;4046;48.774;8.732;2022-07-12T11:43:39;29.70;99.90
8002;DHT22;4046;48.774;8.732;2022-07-12T11:46:06;30.10;99.90
8002;DHT22;4046;48.774;8.732;2022-07-12T11:48:32;31.00;99.90
8002;DHT22;4046;48.774;8.732;2022-07-12T11:51:03;31.60;99.90
8002;DHT22;4046;48.774;8.732;2022-07-12T11:53:30;32.10;99.90
8002;DHT22;4046;48.774;8.732;2022-07-12T11:55:58;32.40;99.90
8002;DHT22;4046;48.774;8.732;2022-07-12T11:58:26;29.90;99.90
8002;DHT22;4046;48.774;8.732;2022-07-12T12:00:53;30.00;99.90
8002;DHT22;4046;48.774;8.732;2022-07-12T12:03:20;30.60;99.90
8002;DHT22;4046;48.774;8.732;2022-07-12T12:05:54;31.40;99.90
8002;DHT22;4046;48.774;8.732;2022-07-12T12:08:21;31.90;99.90
8002;DHT22;4046;48.774;8.732;2022-07-12T12:11:00;32.40;99.90
8002;DHT22;4046;48.774;8.732;2022-07-12T12:13:28;30.50;99.90
8002;DHT22;4046;48.774;8.732;2022-07-12T12:16:02;31.00;99.90
8002;DHT22;4046;48.774;8.732;2022-07-12T12:18:36;31.80;99.90
8002;DHT22;4046;48.774;8.732;2022-07-12T12:21:08;32.00;99.90
8002;DHT22;4046;48.774;8.732;2022-07-12T12:23:35;32.20;99.90
8002;DHT22;4046;48.774;8.732;2022-07-12T12:26:18;31.10;99.90
8002;DHT22;4046;48.774;8.732;2022-07-12T12:28:51;29.30;99.90
8002;DHT22;4046;48.774;8.732;2022-07-12T12:31:20;30.20;99.90
8002;DHT22;4046;48.774;8.732;2022-07-12T12:33:54;31.00;99.90
8002;DHT22;4046;48.774;8.732;2022-07-12T12:36:36;31.70;99.90
8002;DHT22;4046;48.774;8.732;2022-07-12T12:39:03;32.40;99.90
8002;DHT22;4046;48.774;8.732;2022-07-12T12:41:37;33.00;99.90
8002;DHT22;4046;48.774;8.732;2022-07-12T12:44:05;33.10;99.90
8002;DHT22;4046;48.774;8.732;2022-07-12T12:46:56;32.70;99.90
8002;DHT22;4046;48.774;8.732;2022-07-12T12:49:49;32.60;99.90
8002;DHT22;4046;48.774;8.732;2022-07-12T12:52:15;33.10;99.90
8002;DHT22;4046;48.774;8.732;2022-07-12T12:54:41;32.60;99.90
8002;DHT22;4046;48.774;8.732;2022-07-12T12:57:08;32.60;99.90
8002;DHT22;4046;48.774;8.732;2022-07-12T12:59:35;32.90;99.90
8002;DHT22;4046;48.774;8.732;2022-07-12T13:02:02;33.20;99.90
8002;DHT22;4046;48.774;8.732;2022-07-12T13:04:32;33.50;99.90
8002;DHT22;4046;48.774;8.732;2022-07-12T13:06:58;33.70;99.90
8002;DHT22;4046;48.774;8.732;2022-07-12T13:09:26;34.00;99.90
8002;DHT22;4046;48.774;8.732;2022-07-12T13:11:52;34.20;99.90
8002;DHT22;4046;48.774;8.732;2022-07-12T13:14:18;34.20;99.90
8002;DHT22;4046;48.774;8.732;2022-07-12T13:16:44;34.20;99.90
8002;DHT22;4046;48.774;8.732;2022-07-12T13:19:12;34.30;99.90
8002;DHT22;4046;48.774;8.732;2022-07-12T13:21:38;34.50;99.90
8002;DHT22;4046;48.774;8.732;2022-07-12T13:24:04;33.90;99.90
8002;DHT22;4046;48.774;8.732;2022-07-12T13:26:30;33.70;99.90
8002;DHT22;4046;48.774;8.732;2022-07-12T13:28:56;33.80;99.90
8002;DHT22;4046;48.774;8.732;2022-07-12T13:31:22;33.80;99.90
8002;DHT22;4046;48.774;8.732;2022-07-12T13:33:48;33.90;99.90
8002;DHT22;4046;48.774;8.732;2022-07-12T13:36:14;34.00;99.90
8002;DHT22;4046;48.774;8.732;2022-07-12T13:38:40;32.10;99.90
8002;DHT22;4046;48.774;8.732;2022-07-12T13:41:09;30.20;99.90
8002;DHT22;4046;48.774;8.732;2022-07-12T13:43:35;30.20;99.90
8002;DHT22;4046;48.774;8.732;2022-07-12T13:46:01;30.40;99.90
8002;DHT22;4046;48.774;8.732;2022-07-12T13:48:28;30.40;99.90
8002;DHT22;4046;48.774;8.732;2022-07-12T13:50:54;30.70;99.90
8002;DHT22;4046;48.774;8.732;2022-07-12T13:53:20;30.90;99.90
8002;DHT22;4046;48.774;8.732;2022-07-12T13:55:45;31.10;99.90
8002;DHT22;4046;48.774;8.732;2022-07-12T13:58:12;31.40;99.90
8002;DHT22;4046;48.774;8.732;2022-07-12T14:00:40;31.50;99.90
8002;DHT22;4046;48.774;8.732;2022-07-12T14:03:06;31.50;99.90
8002;DHT22;4046;48.774;8.732;2022-07-12T14:05:33;30.70;99.90
8002;DHT22;4046;48.774;8.732;2022-07-12T14:07:59;30.20;99.90
8002;DHT22;4046;48.774;8.732;2022-07-12T14:10:25;30.30;99.90
8002;DHT22;4046;48.774;8.732;2022-07-12T14:12:52;30.50;99.90
8002;DHT22;4046;48.774;8.732;2022-07-12T14:15:18;30.60;99.90
8002;DHT22;4046;48.774;8.732;2022-07-12T14:18:06;30.80;99.90
8002;DHT22;4046;48.774;8.732;2022-07-12T14:20:33;30.90;99.90
8002;DHT22;4046;48.774;8.732;2022-07-12T14:22:59;30.90;99.90
8002;DHT22;4046;48.774;8.732;2022-07-12T14:25:25;30.90;99.90
8002;DHT22;4046;48.774;8.732;2022-07-12T14:27:51;30.90;99.90
8002;DHT22;4046;48.774;8.732;2022-07-12T14:30:16;30.80;99.90
8002;DHT22;4046;48.774;8.732;2022-07-12T14:32:45;30.60;99.90
8002;DHT22;4046;48.774;8.732;2022-07-12T14:35:11;30.30;99.90
8002;DHT22;4046;48.774;8.732;2022-07-12T14:37:37;30.20;99.90
8002;DHT22;4046;48.774;8.732;2022-07-12T14:40:04;29.60;99.90
8002;DHT22;4046;48.774;8.732;2022-07-12T14:42:31;29.50;99.90
8002;DHT22;4046;48.774;8.732;2022-07-12T14:44:56;29.70;99.90
8002;DHT22;4046;48.774;8.732;2022-07-12T14:47:22;29.70;99.90
8002;DHT22;4046;48.774;8.732;2022-07-12T14:49:49;29.70;99.90
8002;DHT22;4046;48.774;8.732;2022-07-12T14:52:15;29.80;99.90
8002;DHT22;4046;48.774;8.732;2022-07-12T14:54:42;30.00;99.90
8002;DHT22;4046;48.774;8.732;2022-07-12T14:57:07;30.10;99.90
8002;DHT22;4046;48.774;8.732;2022-07-12T14:59:33;29.50;99.90
8002;DHT22;4046;48.774;8.732;2022-07-12T15:01:59;29.50;99.90
8002;DHT22;4046;48.774;8.732;2022-07-12T15:04:25;29.50;99.90
8002;DHT22;4046;48.774;8.732;2022-07-12T15:06:51;29.70;99.90
8002;DHT22;4046;48.774;8.732;2022-07-12T15:09:17;29.60;99.90
8002;DHT22;4046;48.774;8.732;2022-07-12T15:11:42;29.30;99.90
8002;DHT22;4046;48.774;8.732;2022-07-12T15:14:08;29.40;99.90
8002;DHT22;4046;48.774;8.732;2022-07-12T15:16:34;29.40;99.90
8002;DHT22;4046;48.774;8.732;2022-07-12T15:19:03;29.50;99.90
8002;DHT22;4046;48.774;8.732;2022-07-12T15:21:29;29.50;99.90
8002;DHT22;4046;48.774;8.732;2022-07-12T15:23:55;29.50;99.90
8002;DHT22;4046;48.774;8.732;2022-07-12T15:26:21;29.60;99.90
8002;DHT22;4046;48.774;8.732;2022-07-12T15:28:59;29.40;99.90
8002;DHT22;4046;48.774;8.732;2022-07-12T15:31:27;28.80;99.90
8002;DHT22;4046;48.774;8.732;2022-07-12T15:33:53;28.50;99.90
8002;DHT22;4046;48.774;8.732;2022-07-12T15:36:20;28.40;99.90
8002;DHT22;4046;48.774;8.732;2022-07-12T15:38:46;28.50;99.90
8002;DHT22;4046;48.774;8.732;2022-07-12T15:41:12;28.50;99.90
8002;DHT22;4046;48.774;8.732;2022-07-12T15:43:39;28.70;99.90
8002;DHT22;4046;48.774;8.732;2022-07-12T15:46:06;28.80;99.90
8002;DHT22;4046;48.774;8.732;2022-07-12T15:48:33;28.90;99.90
8002;DHT22;4046;48.774;8.732;2022-07-12T15:50:59;28.90;99.90
8002;DHT22;4046;48.774;8.732;2022-07-12T15:53:25;28.40;99.90
8002;DHT22;4046;48.774;8.732;2022-07-12T15:55:55;28.30;99.90
8002;DHT22;4046;48.774;8.732;2022-07-12T15:58:26;27.00;99.90
8002;DHT22;4046;48.774;8.732;2022-07-12T16:00:52;26.60;99.90
8002;DHT22;4046;48.774;8.732;2022-07-12T16:03:18;26.60;99.90
8002;DHT22;4046;48.774;8.732;2022-07-12T16:05:44;26.90;99.90
8002;DHT22;4046;48.774;8.732;2022-07-12T16:08:10;27.30;99.90
8002;DHT22;4046;48.774;8.732;2022-07-12T16:10:36;27.70;99.90
8002;DHT22;4046;48.774;8.732;2022-07-12T16:13:02;27.90;99.90
8002;DHT22;4046;48.774;8.732;2022-07-12T16:15:27;28.20;99.90
8002;DHT22;4046;48.774;8.732;2022-07-12T16:17:54;28.20;99.90